sensor_id;sensor_type;location;lat;lon;timestamp;P1;durP1;ratioP1;P2;durP2;ratioP2
25868;SDS011;13688;53.154;18.136;2022-10-26T00:04:38;29.95;;;16.77;;
25868;SDS011;13688;53.154;18.136;2022-10-26T00:10:01;26.07;;;15.83;;
25868;SDS011;13688;53.154;18.136;2022-10-26T00:15:24;30.80;;;16.97;;
25868;SDS011;13688;53.154;18.136;2022-10-26T00:20:50;27.22;;;15.48;;
25868;SDS011;13688;53.154;18.136;2022-10-26T00:26:15;27.03;;;17.03;;
25868;SDS011;13688;53.154;18.136;2022-10-26T00:31:38;28.00;;;17.30;;
25868;SDS011;13688;53.154;18.136;2022-10-26T00:37:00;29.10;;;16.42;;
25868;SDS011;13688;53.154;18.136;2022-10-26T00:42:22;24.75;;;15.80;;
25868;SDS011;13688;53.154;18.136;2022-10-26T00:47:49;31.77;;;15.97;;
25868;SDS011;13688;53.154;18.136;2022-10-26T00:53:15;36.77;;;16.33;;
25868;SDS011;13688;53.154;18.136;2022-10-26T00:58:38;26.75;;;15.20;;
25868;SDS011;13688;53.154;18.136;2022-10-26T01:04:02;31.73;;;16.77;;
25868;SDS011;13688;53.154;18.136;2022-10-26T01:09:25;34.95;;;15.53;;
25868;SDS011;13688;53.154;18.136;2022-10-26T01:14:49;38.48;;;17.55;;
25868;SDS011;13688;53.154;18.136;2022-10-26T01:20:27;36.20;;;17.12;;
25868;SDS011;13688;53.154;18.136;2022-10-26T01:26:07;36.73;;;16.37;;
25868;SDS011;13688;53.154;18.136;2022-10-26T01:31:48;29.20;;;16.10;;
25868;SDS011;13688;53.154;18.136;2022-10-26T01:37:21;23.20;;;16.10;;
25868;SDS011;13688;53.154;18.136;2022-10-26T01:42:46;24.40;;;16.13;;
25868;SDS011;13688;53.154;18.136;2022-10-26T01:48:12;23.77;;;16.07;;
25868;SDS011;13688;53.154;18.136;2022-10-26T01:53:41;23.73;;;16.10;;
25868;SDS011;13688;53.154;18.136;2022-10-26T01:59:09;29.03;;;17.73;;
25868;SDS011;13688;53.154;18.136;2022-10-26T02:04:41;41.90;;;24.23;;
25868;SDS011;13688;53.154;18.136;2022-10-26T02:10:28;47.80;;;24.47;;
25868;SDS011;13688;53.154;18.136;2022-10-26T02:21:39;27.17;;;17.63;;
25868;SDS011;13688;53.154;18.136;2022-10-26T02:27:01;24.75;;;14.78;;
25868;SDS011;13688;53.154;18.136;2022-10-26T02:32:37;27.10;;;16.55;;
25868;SDS011;13688;53.154;18.136;2022-10-26T02:38:04;19.77;;;13.03;;
25868;SDS011;13688;53.154;18.136;2022-10-26T02:43:28;22.10;;;12.95;;
25868;SDS011;13688;53.154;18.136;2022-10-26T02:48:54;19.52;;;12.15;;
25868;SDS011;13688;53.154;18.136;2022-10-26T02:54:18;20.53;;;14.00;;
25868;SDS011;13688;53.154;18.136;2022-10-26T02:59:50;22.30;;;14.53;;
25868;SDS011;13688;53.154;18.136;2022-10-26T03:05:19;20.40;;;12.87;;
25868;SDS011;13688;53.154;18.136;2022-10-26T03:10:44;18.50;;;12.55;;
25868;SDS011;13688;53.154;18.136;2022-10-26T03:16:06;18.27;;;11.18;;
25868;SDS011;13688;53.154;18.136;2022-10-26T03:21:29;19.82;;;12.37;;
25868;SDS011;13688;53.154;18.136;2022-10-26T03:26:51;20.85;;;12.40;;
25868;SDS011;13688;53.154;18.136;2022-10-26T03:32:13;18.30;;;11.97;;
25868;SDS011;13688;53.154;18.136;2022-10-26T03:37:35;26.47;;;15.43;;
25868;SDS011;13688;53.154;18.136;2022-10-26T03:42:57;26.30;;;16.05;;
25868;SDS011;13688;53.154;18.136;2022-10-26T03:48:20;18.02;;;12.30;;
25868;SDS011;13688;53.154;18.136;2022-10-26T03:53:42;18.10;;;12.07;;
25868;SDS011;13688;53.154;18.136;2022-10-26T03:59:04;18.80;;;12.93;;
25868;SDS011;13688;53.154;18.136;2022-10-26T04:04:26;30.60;;;18.45;;
25868;SDS011;13688;53.154;18.136;2022-10-26T04:09:48;26.27;;;15.10;;
25868;SDS011;13688;53.154;18.136;2022-10-26T04:15:11;24.12;;;16.07;;
25868;SDS011;13688;53.154;18.136;2022-10-26T04:20:35;24.37;;;15.27;;
25868;SDS011;13688;53.154;18.136;2022-10-26T04:25:57;26.87;;;16.30;;
25868;SDS011;13688;53.154;18.136;2022-10-26T04:31:20;30.32;;;16.95;;
25868;SDS011;13688;53.154;18.136;2022-10-26T04:36:43;42.55;;;21.95;;
25868;SDS011;13688;53.154;18.136;2022-10-26T04:42:05;48.53;;;27.27;;
25868;SDS011;13688;53.154;18.136;2022-10-26T04:47:28;60.57;;;32.10;;
25868;SDS011;13688;53.154;18.136;2022-10-26T04:52:50;63.00;;;31.42;;
25868;SDS011;13688;53.154;18.136;2022-10-26T04:58:13;58.60;;;31.10;;
25868;SDS011;13688;53.154;18.136;2022-10-26T05:03:36;63.03;;;33.27;;
25868;SDS011;13688;53.154;18.136;2022-10-26T05:08:59;45.90;;;27.47;;
25868;SDS011;13688;53.154;18.136;2022-10-26T05:14:21;40.60;;;23.57;;
25868;SDS011;13688;53.154;18.136;2022-10-26T05:19:43;48.07;;;25.63;;
25868;SDS011;13688;53.154;18.136;2022-10-26T05:25:07;37.88;;;21.97;;
25868;SDS011;13688;53.154;18.136;2022-10-26T05:30:29;50.17;;;26.57;;
25868;SDS011;13688;53.154;18.136;2022-10-26T05:35:53;50.73;;;27.43;;
25868;SDS011;13688;53.154;18.136;2022-10-26T05:41:17;36.77;;;19.35;;
25868;SDS011;13688;53.154;18.136;2022-10-26T05:46:39;34.40;;;19.37;;
25868;SDS011;13688;53.154;18.136;2022-10-26T05:52:02;32.20;;;18.17;;
25868;SDS011;13688;53.154;18.136;2022-10-26T05:57:25;32.05;;;17.35;;
25868;SDS011;13688;53.154;18.136;2022-10-26T06:03:05;29.27;;;17.50;;
25868;SDS011;13688;53.154;18.136;2022-10-26T06:08:30;31.50;;;19.35;;
25868;SDS011;13688;53.154;18.136;2022-10-26T06:13:53;22.85;;;16.10;;
25868;SDS011;13688;53.154;18.136;2022-10-26T06:19:31;31.07;;;17.97;;
25868;SDS011;13688;53.154;18.136;2022-10-26T06:30:28;26.47;;;16.87;;
25868;SDS011;13688;53.154;18.136;2022-10-26T06:36:15;18.20;;;13.28;;
25868;SDS011;13688;53.154;18.136;2022-10-26T06:41:33;27.37;;;15.83;;
25868;SDS011;13688;53.154;18.136;2022-10-26T06:47:05;28.87;;;16.87;;
25868;SDS011;13688;53.154;18.136;2022-10-26T06:52:37;20.12;;;13.98;;
25868;SDS011;13688;53.154;18.136;2022-10-26T06:58:07;20.40;;;13.95;;
25868;SDS011;13688;53.154;18.136;2022-10-26T07:03:31;23.85;;;12.60;;
25868;SDS011;13688;53.154;18.136;2022-10-26T07:08:53;20.17;;;11.30;;
25868;SDS011;13688;53.154;18.136;2022-10-26T07:14:16;15.00;;;11.23;;
25868;SDS011;13688;53.154;18.136;2022-10-26T07:19:38;20.95;;;11.50;;
25868;SDS011;13688;53.154;18.136;2022-10-26T07:25:00;13.90;;;10.43;;
25868;SDS011;13688;53.154;18.136;2022-10-26T07:30:24;15.43;;;9.45;;
25868;SDS011;13688;53.154;18.136;2022-10-26T07:35:47;17.07;;;10.88;;
25868;SDS011;13688;53.154;18.136;2022-10-26T07:41:11;14.73;;;10.83;;
25868;SDS011;13688;53.154;18.136;2022-10-26T07:46:33;14.68;;;10.72;;
25868;SDS011;13688;53.154;18.136;2022-10-26T07:51:55;26.20;;;17.23;;
25868;SDS011;13688;53.154;18.136;2022-10-26T07:57:18;12.05;;;10.18;;
25868;SDS011;13688;53.154;18.136;2022-10-26T08:02:41;15.43;;;11.37;;
25868;SDS011;13688;53.154;18.136;2022-10-26T08:08:04;19.87;;;11.90;;
25868;SDS011;13688;53.154;18.136;2022-10-26T08:13:27;15.25;;;11.68;;
25868;SDS011;13688;53.154;18.136;2022-10-26T08:18:49;19.05;;;12.45;;
25868;SDS011;13688;53.154;18.136;2022-10-26T08:24:12;17.20;;;13.18;;
25868;SDS011;13688;53.154;18.136;2022-10-26T08:29:35;20.32;;;13.45;;
25868;SDS011;13688;53.154;18.136;2022-10-26T08:34:57;15.40;;;11.75;;
25868;SDS011;13688;53.154;18.136;2022-10-26T08:40:23;15.05;;;11.95;;
25868;SDS011;13688;53.154;18.136;2022-10-26T08:45:56;22.13;;;12.07;;
25868;SDS011;13688;53.154;18.136;2022-10-26T08:51:18;17.10;;;12.30;;
25868;SDS011;13688;53.154;18.136;2022-10-26T08:56:45;19.80;;;12.10;;
25868;SDS011;13688;53.154;18.136;2022-10-26T09:02:14;20.10;;;12.47;;
25868;SDS011;13688;53.154;18.136;2022-10-26T09:13:25;22.27;;;13.43;;
25868;SDS011;13688;53.154;18.136;2022-10-26T09:24:38;19.57;;;13.03;;
25868;SDS011;13688;53.154;18.136;2022-10-26T09:30:13;18.62;;;12.88;;
25868;SDS011;13688;53.154;18.136;2022-10-26T09:35:42;17.33;;;13.13;;
25868;SDS011;13688;53.154;18.136;2022-10-26T09:47:12;21.17;;;15.08;;
25868;SDS011;13688;53.154;18.136;2022-10-26T09:52:43;18.82;;;13.60;;
25868;SDS011;13688;53.154;18.136;2022-10-26T09:58:05;19.13;;;12.70;;
25868;SDS011;13688;53.154;18.136;2022-10-26T10:03:34;21.17;;;13.43;;
25868;SDS011;13688;53.154;18.136;2022-10-26T10:09:06;18.60;;;13.15;;
25868;SDS011;13688;53.154;18.136;2022-10-26T10:14:39;19.77;;;12.88;;
25868;SDS011;13688;53.154;18.136;2022-10-26T10:20:16;21.70;;;13.70;;
25868;SDS011;13688;53.154;18.136;2022-10-26T10:25:40;20.03;;;13.60;;
25868;SDS011;13688;53.154;18.136;2022-10-26T10:31:22;20.02;;;12.88;;
25868;SDS011;13688;53.154;18.136;2022-10-26T10:36:48;20.92;;;14.85;;
25868;SDS011;13688;53.154;18.136;2022-10-26T10:42:21;18.60;;;15.00;;
25868;SDS011;13688;53.154;18.136;2022-10-26T10:47:43;19.95;;;15.72;;
25868;SDS011;13688;53.154;18.136;2022-10-26T10:53:20;19.50;;;14.23;;
25868;SDS011;13688;53.154;18.136;2022-10-26T10:58:50;20.88;;;14.15;;
25868;SDS011;13688;53.154;18.136;2022-10-26T11:10:38;18.67;;;14.10;;
25868;SDS011;13688;53.154;18.136;2022-10-26T11:21:59;21.57;;;15.20;;
25868;SDS011;13688;53.154;18.136;2022-10-26T11:27:40;23.73;;;15.00;;
25868;SDS011;13688;53.154;18.136;2022-10-26T11:33:08;24.33;;;15.63;;
25868;SDS011;13688;53.154;18.136;2022-10-26T11:38:47;33.07;;;21.73;;
25868;SDS011;13688;53.154;18.136;2022-10-26T11:44:16;22.65;;;16.82;;
25868;SDS011;13688;53.154;18.136;2022-10-26T11:49:59;25.10;;;15.33;;
25868;SDS011;13688;53.154;18.136;2022-10-26T11:55:35;23.77;;;17.13;;
25868;SDS011;13688;53.154;18.136;2022-10-26T12:01:08;25.23;;;15.57;;
25868;SDS011;13688;53.154;18.136;2022-10-26T12:06:32;24.20;;;16.87;;
25868;SDS011;13688;53.154;18.136;2022-10-26T12:11:57;23.73;;;15.07;;
25868;SDS011;13688;53.154;18.136;2022-10-26T12:17:48;20.80;;;14.33;;
25868;SDS011;13688;53.154;18.136;2022-10-26T12:23:59;24.07;;;14.38;;
25868;SDS011;13688;53.154;18.136;2022-10-26T12:29:44;23.12;;;16.02;;
25868;SDS011;13688;53.154;18.136;2022-10-26T12:35:34;21.97;;;14.67;;
25868;SDS011;13688;53.154;18.136;2022-10-26T12:46:39;20.92;;;15.48;;
25868;SDS011;13688;53.154;18.136;2022-10-26T12:52:02;20.80;;;13.68;;
25868;SDS011;13688;53.154;18.136;2022-10-26T12:57:31;26.75;;;15.95;;
25868;SDS011;13688;53.154;18.136;2022-10-26T13:09:30;22.70;;;13.47;;
25868;SDS011;13688;53.154;18.136;2022-10-26T13:15:01;21.60;;;14.40;;
25868;SDS011;13688;53.154;18.136;2022-10-26T13:21:01;22.67;;;13.87;;
25868;SDS011;13688;53.154;18.136;2022-10-26T13:26:27;19.93;;;14.10;;
25868;SDS011;13688;53.154;18.136;2022-10-26T13:32:10;19.63;;;13.63;;
25868;SDS011;13688;53.154;18.136;2022-10-26T13:37:35;21.93;;;13.47;;
25868;SDS011;13688;53.154;18.136;2022-10-26T13:43:02;23.57;;;16.47;;
25868;SDS011;13688;53.154;18.136;2022-10-26T13:48:38;21.57;;;14.60;;
25868;SDS011;13688;53.154;18.136;2022-10-26T13:54:06;22.30;;;14.63;;
25868;SDS011;13688;53.154;18.136;2022-10-26T13:59:48;19.52;;;13.80;;
25868;SDS011;13688;53.154;18.136;2022-10-26T14:05:24;21.05;;;13.22;;
25868;SDS011;13688;53.154;18.136;2022-10-26T14:10:55;24.95;;;15.95;;
25868;SDS011;13688;53.154;18.136;2022-10-26T14:16:19;28.20;;;16.77;;
25868;SDS011;13688;53.154;18.136;2022-10-26T14:21:47;25.40;;;17.82;;
25868;SDS011;13688;53.154;18.136;2022-10-26T14:27:20;32.40;;;19.27;;
25868;SDS011;13688;53.154;18.136;2022-10-26T14:32:36;28.87;;;18.50;;
25868;SDS011;13688;53.154;18.136;2022-10-26T14:38:10;21.07;;;14.80;;
25868;SDS011;13688;53.154;18.136;2022-10-26T14:43:29;22.80;;;13.97;;
25868;SDS011;13688;53.154;18.136;2022-10-26T14:48:57;25.85;;;16.65;;
25868;SDS011;13688;53.154;18.136;2022-10-26T14:54:32;28.70;;;16.50;;
25868;SDS011;13688;53.154;18.136;2022-10-26T15:00:02;20.40;;;14.40;;
25868;SDS011;13688;53.154;18.136;2022-10-26T15:05:32;16.93;;;11.30;;
25868;SDS011;13688;53.154;18.136;2022-10-26T15:10:55;19.07;;;12.60;;
25868;SDS011;13688;53.154;18.136;2022-10-26T15:16:27;17.90;;;12.53;;
25868;SDS011;13688;53.154;18.136;2022-10-26T15:21:50;27.57;;;17.53;;
25868;SDS011;13688;53.154;18.136;2022-10-26T15:27:14;21.07;;;12.00;;
25868;SDS011;13688;53.154;18.136;2022-10-26T15:32:37;17.87;;;11.07;;
25868;SDS011;13688;53.154;18.136;2022-10-26T15:38:01;18.05;;;11.40;;
25868;SDS011;13688;53.154;18.136;2022-10-26T15:43:25;24.00;;;12.50;;
25868;SDS011;13688;53.154;18.136;2022-10-26T15:48:53;16.70;;;10.97;;
25868;SDS011;13688;53.154;18.136;2022-10-26T15:54:13;23.30;;;14.75;;
25868;SDS011;13688;53.154;18.136;2022-10-26T15:59:36;19.03;;;12.33;;
25868;SDS011;13688;53.154;18.136;2022-10-26T16:04:58;17.52;;;12.80;;
25868;SDS011;13688;53.154;18.136;2022-10-26T16:10:22;21.20;;;14.25;;
25868;SDS011;13688;53.154;18.136;2022-10-26T16:15:46;25.40;;;14.40;;
25868;SDS011;13688;53.154;18.136;2022-10-26T16:21:11;31.62;;;14.70;;
25868;SDS011;13688;53.154;18.136;2022-10-26T16:26:35;23.10;;;15.63;;
25868;SDS011;13688;53.154;18.136;2022-10-26T16:31:57;22.90;;;15.00;;
25868;SDS011;13688;53.154;18.136;2022-10-26T16:37:19;22.27;;;14.57;;
25868;SDS011;13688;53.154;18.136;2022-10-26T16:42:44;28.55;;;15.80;;
25868;SDS011;13688;53.154;18.136;2022-10-26T16:48:06;28.00;;;17.85;;
25868;SDS011;13688;53.154;18.136;2022-10-26T16:53:29;28.50;;;16.45;;
25868;SDS011;13688;53.154;18.136;2022-10-26T16:58:52;25.92;;;17.35;;
25868;SDS011;13688;53.154;18.136;2022-10-26T17:04:15;25.23;;;19.12;;
25868;SDS011;13688;53.154;18.136;2022-10-26T17:09:37;31.20;;;20.33;;
25868;SDS011;13688;53.154;18.136;2022-10-26T17:14:59;62.43;;;38.70;;
25868;SDS011;13688;53.154;18.136;2022-10-26T17:20:23;30.92;;;19.12;;
25868;SDS011;13688;53.154;18.136;2022-10-26T17:25:48;35.03;;;20.92;;
25868;SDS011;13688;53.154;18.136;2022-10-26T17:31:14;32.35;;;20.65;;
25868;SDS011;13688;53.154;18.136;2022-10-26T17:36:37;37.67;;;22.62;;
25868;SDS011;13688;53.154;18.136;2022-10-26T17:41:59;34.63;;;22.55;;
25868;SDS011;13688;53.154;18.136;2022-10-26T17:47:22;41.80;;;24.67;;
25868;SDS011;13688;53.154;18.136;2022-10-26T17:52:44;43.80;;;26.77;;
25868;SDS011;13688;53.154;18.136;2022-10-26T17:58:08;42.75;;;28.42;;
25868;SDS011;13688;53.154;18.136;2022-10-26T18:03:31;40.85;;;26.70;;
25868;SDS011;13688;53.154;18.136;2022-10-26T18:08:57;42.80;;;25.80;;
25868;SDS011;13688;53.154;18.136;2022-10-26T18:14:22;95.17;;;63.33;;
25868;SDS011;13688;53.154;18.136;2022-10-26T18:19:45;41.98;;;28.45;;
25868;SDS011;13688;53.154;18.136;2022-10-26T18:25:08;38.53;;;25.68;;
25868;SDS011;13688;53.154;18.136;2022-10-26T18:30:30;37.78;;;24.87;;
25868;SDS011;13688;53.154;18.136;2022-10-26T18:35:52;40.50;;;27.70;;
25868;SDS011;13688;53.154;18.136;2022-10-26T18:41:20;32.98;;;21.85;;
25868;SDS011;13688;53.154;18.136;2022-10-26T18:46:43;37.03;;;23.60;;
25868;SDS011;13688;53.154;18.136;2022-10-26T18:52:05;36.93;;;22.82;;
25868;SDS011;13688;53.154;18.136;2022-10-26T18:57:30;40.40;;;28.45;;
25868;SDS011;13688;53.154;18.136;2022-10-26T19:02:56;34.53;;;23.30;;
25868;SDS011;13688;53.154;18.136;2022-10-26T19:08:20;33.28;;;23.42;;
25868;SDS011;13688;53.154;18.136;2022-10-26T19:13:42;40.98;;;24.65;;
25868;SDS011;13688;53.154;18.136;2022-10-26T19:19:05;35.27;;;23.37;;
25868;SDS011;13688;53.154;18.136;2022-10-26T19:24:29;41.23;;;24.30;;
25868;SDS011;13688;53.154;18.136;2022-10-26T19:29:51;73.35;;;45.48;;
25868;SDS011;13688;53.154;18.136;2022-10-26T19:35:14;42.27;;;26.95;;
25868;SDS011;13688;53.154;18.136;2022-10-26T19:40:38;35.55;;;23.67;;
25868;SDS011;13688;53.154;18.136;2022-10-26T19:46:12;38.37;;;25.43;;
25868;SDS011;13688;53.154;18.136;2022-10-26T19:51:37;68.50;;;44.30;;
25868;SDS011;13688;53.154;18.136;2022-10-26T19:57:00;48.78;;;28.92;;
25868;SDS011;13688;53.154;18.136;2022-10-26T20:02:22;79.53;;;49.42;;
25868;SDS011;13688;53.154;18.136;2022-10-26T20:07:44;52.67;;;33.02;;
25868;SDS011;13688;53.154;18.136;2022-10-26T20:13:12;53.28;;;33.35;;
25868;SDS011;13688;53.154;18.136;2022-10-26T20:18:32;52.50;;;31.30;;
25868;SDS011;13688;53.154;18.136;2022-10-26T20:24:05;51.70;;;30.60;;
25868;SDS011;13688;53.154;18.136;2022-10-26T20:29:27;54.93;;;33.18;;
25868;SDS011;13688;53.154;18.136;2022-10-26T20:34:50;69.87;;;43.45;;
25868;SDS011;13688;53.154;18.136;2022-10-26T20:40:13;62.87;;;35.60;;
25868;SDS011;13688;53.154;18.136;2022-10-26T20:45:35;51.93;;;29.90;;
25868;SDS011;13688;53.154;18.136;2022-10-26T20:51:14;50.50;;;31.00;;
25868;SDS011;13688;53.154;18.136;2022-10-26T20:56:47;50.00;;;29.27;;
25868;SDS011;13688;53.154;18.136;2022-10-26T21:02:11;88.03;;;54.17;;
25868;SDS011;13688;53.154;18.136;2022-10-26T21:07:33;60.90;;;36.60;;
25868;SDS011;13688;53.154;18.136;2022-10-26T21:12:55;44.07;;;28.43;;
25868;SDS011;13688;53.154;18.136;2022-10-26T21:18:17;43.23;;;28.50;;
25868;SDS011;13688;53.154;18.136;2022-10-26T21:23:40;45.08;;;28.02;;
25868;SDS011;13688;53.154;18.136;2022-10-26T21:29:02;52.53;;;29.70;;
25868;SDS011;13688;53.154;18.136;2022-10-26T21:34:25;47.58;;;29.48;;
25868;SDS011;13688;53.154;18.136;2022-10-26T21:39:48;52.27;;;29.57;;
25868;SDS011;13688;53.154;18.136;2022-10-26T21:45:10;55.45;;;29.45;;
25868;SDS011;13688;53.154;18.136;2022-10-26T21:50:33;56.75;;;27.65;;
25868;SDS011;13688;53.154;18.136;2022-10-26T21:55:59;51.85;;;27.98;;
25868;SDS011;13688;53.154;18.136;2022-10-26T22:01:25;45.10;;;28.50;;
25868;SDS011;13688;53.154;18.136;2022-10-26T22:06:48;39.78;;;27.62;;
25868;SDS011;13688;53.154;18.136;2022-10-26T22:12:10;47.73;;;27.90;;
25868;SDS011;13688;53.154;18.136;2022-10-26T22:17:35;46.00;;;26.93;;
25868;SDS011;13688;53.154;18.136;2022-10-26T22:22:56;45.95;;;26.35;;
25868;SDS011;13688;53.154;18.136;2022-10-26T22:28:18;40.27;;;26.33;;
25868;SDS011;13688;53.154;18.136;2022-10-26T22:33:44;39.88;;;27.42;;
25868;SDS011;13688;53.154;18.136;2022-10-26T22:39:10;43.27;;;26.43;;
25868;SDS011;13688;53.154;18.136;2022-10-26T22:44:32;57.80;;;26.60;;
25868;SDS011;13688;53.154;18.136;2022-10-26T22:49:55;39.00;;;24.90;;
25868;SDS011;13688;53.154;18.136;2022-10-26T22:55:18;41.33;;;26.00;;
25868;SDS011;13688;53.154;18.136;2022-10-26T23:00:40;38.02;;;26.40;;
25868;SDS011;13688;53.154;18.136;2022-10-26T23:06:13;39.40;;;25.37;;
25868;SDS011;13688;53.154;18.136;2022-10-26T23:11:37;37.00;;;24.90;;
25868;SDS011;13688;53.154;18.136;2022-10-26T23:16:59;35.98;;;23.87;;
25868;SDS011;13688;53.154;18.136;2022-10-26T23:22:21;42.93;;;24.73;;
25868;SDS011;13688;53.154;18.136;2022-10-26T23:27:44;33.67;;;24.20;;
25868;SDS011;13688;53.154;18.136;2022-10-26T23:33:06;33.27;;;23.90;;
25868;SDS011;13688;53.154;18.136;2022-10-26T23:38:28;39.77;;;26.07;;
25868;SDS011;13688;53.154;18.136;2022-10-26T23:43:50;48.33;;;26.03;;
25868;SDS011;13688;53.154;18.136;2022-10-26T23:49:13;39.27;;;26.40;;
25868;SDS011;13688;53.154;18.136;2022-10-26T23:54:35;44.70;;;26.40;;
25868;SDS011;13688;53.154;18.136;2022-10-26T23:59:58;38.10;;;24.23;;
